Time;durP1;ratioP1;P1;durP2;ratioP2;P2;SDS_P1;SDS_P2;PMS_P1;PMS_P2;Temp;Humidity;BMP_temperature;BMP_pressure;BME280_temperature;BME280_humidity;BME280_pressure;Samples;Min_cycle;Max_cycle;Signal;HPM_P1;HPM_P2
2021/07/11 00:01:30;;;;;;;9.52;5.45;;;17.50;96.30;;;;;;4942000;29;20137;-84
2021/07/11 00:03:56;;;;;;;10.15;5.70;;;17.60;96.40;;;;;;4943101;29;20588;-83
2021/07/11 00:06:22;;;;;;;9.35;5.70;;;17.70;96.60;;;;;;4959435;29;20456;-84
2021/07/11 00:08:50;;;;;;;9.77;5.78;;;17.80;96.70;;;;;;4960790;29;20027;-83
2021/07/11 00:11:16;;;;;;;10.18;6.60;;;17.80;96.60;;;;;;4952183;29;20027;-83
2021/07/11 00:13:50;;;;;;;9.75;5.57;;;17.90;96.60;;;;;;4974881;29;20015;-84
2021/07/11 00:16:17;;;;;;;11.30;5.75;;;18.00;96.50;;;;;;4947355;29;20074;-83
2021/07/11 00:18:42;;;;;;;11.45;6.63;;;18.10;96.60;;;;;;4942447;29;20031;-84
2021/07/11 00:21:13;;;;;;;11.10;6.28;;;18.10;96.60;;;;;;4941109;29;20019;-84
2021/07/11 00:23:44;;;;;;;10.65;6.00;;;18.10;96.90;;;;;;4940032;29;20440;-84
2021/07/11 00:26:10;;;;;;;9.45;6.25;;;18.20;96.60;;;;;;4957014;28;20049;-84
2021/07/11 00:28:36;;;;;;;10.45;6.40;;;18.30;96.70;;;;;;4940855;29;20038;-84
2021/07/11 00:31:05;;;;;;;9.40;5.65;;;18.30;96.70;;;;;;4957596;29;20507;-84
2021/07/11 00:33:39;;;;;;;9.73;5.88;;;18.40;96.70;;;;;;4941232;29;20051;-84
2021/07/11 00:36:09;;;;;;;10.95;6.70;;;18.40;96.70;;;;;;4937080;29;20035;-84
2021/07/11 00:38:41;;;;;;;9.80;5.28;;;18.50;96.70;;;;;;4940769;29;20034;-85
2021/07/11 00:41:12;;;;;;;9.48;5.07;;;18.50;96.70;;;;;;4940612;29;20070;-84
2021/07/11 00:43:52;;;;;;;8.18;4.57;;;18.50;96.70;;;;;;4940922;29;20371;-84
2021/07/11 00:46:20;;;;;;;9.02;4.72;;;18.60;96.60;;;;;;4940979;29;20484;-84
2021/07/11 00:49:02;;;;;;;7.97;4.30;;;18.60;96.70;;;;;;4936130;29;20071;-85
2021/07/11 00:51:31;;;;;;;9.60;4.35;;;18.60;96.60;;;;;;4914049;29;20408;-85
2021/07/11 00:53:57;;;;;;;9.10;4.95;;;18.60;96.60;;;;;;4917887;29;20076;-84
2021/07/11 00:56:22;;;;;;;8.27;4.28;;;18.70;96.60;;;;;;4918646;29;20032;-84
2021/07/11 00:58:48;;;;;;;9.77;5.18;;;18.70;96.50;;;;;;4919227;29;20064;-83
2021/07/11 01:01:26;;;;;;;8.05;4.72;;;18.60;96.50;;;;;;4919137;29;20024;-84
2021/07/11 01:03:57;;;;;;;8.38;4.68;;;18.60;96.50;;;;;;4934246;29;20024;-83
2021/07/11 01:06:26;;;;;;;8.38;4.43;;;18.70;96.50;;;;;;4932969;29;20028;-84
2021/07/11 01:09:00;;;;;;;6.53;3.67;;;18.70;96.50;;;;;;4918766;29;20477;-84
2021/07/11 01:11:31;;;;;;;6.68;3.47;;;18.60;96.50;;;;;;4919302;29;20032;-83
2021/07/11 01:14:05;;;;;;;8.00;4.22;;;18.60;96.60;;;;;;4917496;29;20071;-85
2021/07/11 01:16:46;;;;;;;6.72;3.38;;;18.70;96.60;;;;;;4919107;29;20477;-84
2021/07/11 01:19:49;;;;;;;6.82;3.63;;;18.70;96.60;;;;;;4918691;29;20032;-84
2021/07/11 01:22:33;;;;;;;7.70;3.33;;;18.70;96.60;;;;;;4901515;29;20032;-85
2021/07/11 01:25:15;;;;;;;8.05;3.55;;;18.70;96.50;;;;;;4919278;29;20063;-83
2021/07/11 01:27:43;;;;;;;7.22;3.78;;;18.70;96.60;;;;;;4917963;29;20075;-83
2021/07/11 01:30:10;;;;;;;8.05;4.18;;;18.60;96.50;;;;;;4918094;29;20020;-83
2021/07/11 01:32:40;;;;;;;6.97;3.17;;;18.70;96.50;;;;;;4917983;29;20040;-83
2021/07/11 01:35:08;;;;;;;7.75;3.50;;;18.70;96.60;;;;;;4917535;29;20049;-83
2021/07/11 01:37:45;;;;;;;6.50;3.15;;;18.70;96.60;;;;;;4918889;29;20052;-84
2021/07/11 01:40:20;;;;;;;7.13;3.15;;;18.80;96.60;;;;;;4905334;29;20342;-84
2021/07/11 01:42:58;;;;;;;5.55;2.80;;;18.70;96.60;;;;;;4900899;29;20039;-84
2021/07/11 01:45:30;;;;;;;7.53;3.45;;;18.70;96.60;;;;;;4898147;29;20032;-86
2021/07/11 01:47:56;;;;;;;7.53;3.80;;;18.60;96.50;;;;;;4898893;29;20145;-84
2021/07/11 01:50:23;;;;;;;8.23;4.35;;;18.70;96.60;;;;;;4899035;29;20444;-84
2021/07/11 01:52:50;;;;;;;6.78;3.38;;;18.70;96.60;;;;;;4915992;29;20048;-83
2021/07/11 01:55:17;;;;;;;5.43;2.80;;;18.70;96.70;;;;;;4933753;29;20024;-83
2021/07/11 01:57:43;;;;;;;6.10;2.90;;;18.70;96.70;;;;;;4918233;29;20029;-83
2021/07/11 02:00:12;;;;;;;6.80;3.17;;;18.70;96.70;;;;;;4934812;29;20028;-82
2021/07/11 02:02:39;;;;;;;6.07;2.97;;;18.70;96.60;;;;;;4917632;29;20100;-83
2021/07/11 02:05:08;;;;;;;5.30;2.70;;;18.70;96.60;;;;;;4917740;29;20115;-82
2021/07/11 02:07:34;;;;;;;6.35;3.15;;;18.70;96.60;;;;;;4916207;29;20113;-83
2021/07/11 02:10:04;;;;;;;4.97;2.50;;;18.80;96.60;;;;;;4917983;29;20024;-85
2021/07/11 02:12:32;;;;;;;5.55;2.40;;;18.70;96.70;;;;;;4917159;29;20470;-85
2021/07/11 02:15:04;;;;;;;5.07;2.50;;;18.70;96.60;;;;;;4917015;29;20059;-84
2021/07/11 02:17:31;;;;;;;6.85;3.03;;;18.70;96.50;;;;;;4916512;29;20028;-85
2021/07/11 02:20:04;;;;;;;7.70;3.35;;;18.60;96.50;;;;;;4918361;29;20104;-85
2021/07/11 02:22:30;;;;;;;6.82;3.15;;;18.60;96.50;;;;;;4917281;29;20035;-85
2021/07/11 02:25:00;;;;;;;7.70;3.63;;;18.60;96.50;;;;;;4931965;29;20055;-84
2021/07/11 02:27:33;;;;;;;5.70;2.70;;;18.60;96.30;;;;;;4917128;29;20111;-85
2021/07/11 02:30:13;;;;;;;6.57;3.00;;;18.50;96.50;;;;;;4932368;29;20034;-85
2021/07/11 02:32:49;;;;;;;7.32;3.42;;;18.50;96.40;;;;;;4917439;29;20138;-85
2021/07/11 02:35:20;;;;;;;6.95;3.22;;;18.50;96.50;;;;;;4919973;29;20091;-84
2021/07/11 02:37:50;;;;;;;8.27;3.10;;;18.40;96.50;;;;;;4918320;29;20047;-84
2021/07/11 02:40:38;;;;;;;6.63;3.28;;;18.30;96.40;;;;;;4933348;29;20032;-86
2021/07/11 02:43:57;;;;;;;9.77;3.47;;;18.20;96.40;;;;;;4916895;29;20040;-86
2021/07/11 02:46:32;;;;;;;7.60;3.58;;;18.30;96.50;;;;;;4916540;29;20032;-86
2021/07/11 02:49:28;;;;;;;8.48;3.75;;;18.20;96.40;;;;;;4917759;29;20103;-86
2021/07/11 02:51:57;;;;;;;8.77;3.63;;;18.10;96.30;;;;;;4932204;29;20191;-85
2021/07/11 02:54:31;;;;;;;10.85;4.72;;;18.10;96.50;;;;;;4923294;29;20034;-85
2021/07/11 02:57:07;;;;;;;7.72;3.35;;;18.00;96.40;;;;;;4949876;29;20019;-85
2021/07/11 02:59:37;;;;;;;10.73;4.50;;;18.00;96.30;;;;;;4945736;29;20039;-85
2021/07/11 03:02:05;;;;;;;10.38;4.45;;;17.90;96.40;;;;;;4928524;29;20461;-83
2021/07/11 03:04:40;;;;;;;10.77;5.32;;;17.90;96.40;;;;;;4923194;29;20465;-83
2021/07/11 03:07:09;;;;;;;11.13;4.68;;;17.90;96.30;;;;;;4939888;29;20440;-83
2021/07/11 03:09:35;;;;;;;13.13;5.10;;;17.90;96.40;;;;;;4940181;29;20023;-84
2021/07/11 03:12:05;;;;;;;10.48;4.90;;;17.90;96.50;;;;;;4924024;29;20031;-84
2021/07/11 03:14:31;;;;;;;10.43;4.38;;;17.80;96.50;;;;;;4923145;29;20020;-84
2021/07/11 03:17:00;;;;;;;10.27;5.18;;;17.80;96.60;;;;;;4922361;29;20082;-83
2021/07/11 03:19:28;;;;;;;9.23;4.32;;;17.80;96.50;;;;;;4923207;29;20032;-83
2021/07/11 03:21:54;;;;;;;10.98;4.97;;;17.80;96.50;;;;;;4922047;29;20028;-84
2021/07/11 03:24:25;;;;;;;10.80;4.57;;;17.80;96.50;;;;;;4922581;29;20457;-84
2021/07/11 03:26:56;;;;;;;11.93;4.72;;;17.80;96.60;;;;;;4924102;29;20520;-83
2021/07/11 03:29:30;;;;;;;10.73;4.18;;;17.80;96.60;;;;;;4924379;29;20026;-83
2021/07/11 03:32:07;;;;;;;10.88;4.63;;;17.70;96.60;;;;;;4923926;29;20380;-85
2021/07/11 03:37:41;;;;;;;9.73;4.20;;;17.80;96.60;;;;;;4931569;29;20055;-84
2021/07/11 03:40:11;;;;;;;8.48;4.40;;;17.80;96.70;;;;;;4923707;29;20035;-84
2021/07/11 03:42:41;;;;;;;9.73;4.80;;;17.90;96.70;;;;;;4941003;29;20034;-84
2021/07/11 03:45:11;;;;;;;9.23;4.68;;;17.80;96.60;;;;;;4938334;29;20031;-84
2021/07/11 03:48:09;;;;;;;12.07;4.63;;;17.80;96.70;;;;;;4939176;29;20039;-84
2021/07/11 03:50:45;;;;;;;7.57;4.03;;;17.90;96.70;;;;;;4916871;29;20438;-84
2021/07/11 03:53:17;;;;;;;8.93;4.00;;;17.90;96.70;;;;;;4939154;29;20046;-84
2021/07/11 03:56:03;;;;;;;7.63;3.95;;;17.90;96.70;;;;;;4923446;29;20024;-84
2021/07/11 03:58:45;;;;;;;8.43;3.40;;;17.90;96.80;;;;;;4923408;29;20113;-84
2021/07/11 04:01:18;;;;;;;9.27;4.45;;;17.90;96.80;;;;;;4937638;29;20024;-85
2021/07/11 04:06:59;;;;;;;8.23;3.55;;;18.00;96.70;;;;;;4940924;29;20039;-84
2021/07/11 04:09:42;;;;;;;7.35;3.28;;;17.90;96.70;;;;;;4922787;29;20456;-85
2021/07/11 04:12:09;;;;;;;6.90;3.30;;;17.90;96.70;;;;;;4906773;29;20147;-82
2021/07/11 04:14:35;;;;;;;9.40;3.60;;;17.90;96.70;;;;;;4937890;29;20071;-83
2021/07/11 04:17:05;;;;;;;7.65;3.25;;;18.00;96.80;;;;;;4920981;29;20064;-83
2021/07/11 04:19:41;;;;;;;7.93;3.60;;;17.90;96.70;;;;;;4937752;29;20024;-83
2021/07/11 04:22:18;;;;;;;8.45;3.20;;;17.90;96.50;;;;;;4937598;29;20027;-84
2021/07/11 04:24:52;;;;;;;6.90;2.70;;;17.90;96.40;;;;;;4905611;29;20043;-84
2021/07/11 04:27:19;;;;;;;9.00;3.10;;;17.80;96.50;;;;;;4937540;29;20035;-84
2021/07/11 04:29:46;;;;;;;5.38;2.75;;;17.60;96.50;;;;;;4921303;29;20027;-84
2021/07/11 04:32:12;;;;;;;7.60;3.05;;;17.70;96.60;;;;;;4920346;29;20058;-84
2021/07/11 04:34:40;;;;;;;6.55;2.60;;;17.80;96.70;;;;;;4937948;29;20015;-84
2021/07/11 04:37:07;;;;;;;5.95;2.88;;;17.80;96.70;;;;;;4939468;29;20347;-84
2021/07/11 04:39:34;;;;;;;5.55;2.38;;;17.80;96.70;;;;;;4956311;29;20031;-84
2021/07/11 04:42:05;;;;;;;5.18;2.30;;;17.80;96.70;;;;;;4956948;29;20027;-85
2021/07/11 04:44:31;;;;;;;3.53;2.10;;;17.80;96.80;;;;;;4939718;29;20468;-85
2021/07/11 04:46:58;;;;;;;4.53;2.20;;;17.80;96.80;;;;;;4956557;29;20464;-85
2021/07/11 04:49:24;;;;;;;4.40;2.20;;;17.80;96.80;;;;;;4939650;29;20046;-84
2021/07/11 04:51:51;;;;;;;4.78;2.38;;;17.90;96.80;;;;;;4941484;29;20051;-84
2021/07/11 04:54:17;;;;;;;5.05;2.35;;;17.90;96.80;;;;;;4916801;29;20024;-84
2021/07/11 04:56:43;;;;;;;5.03;2.30;;;17.90;96.70;;;;;;4917395;29;20377;-84
2021/07/11 04:59:09;;;;;;;4.13;2.33;;;17.90;96.70;;;;;;4917068;29;20389;-84
2021/07/11 05:01:34;;;;;;;3.63;2.10;;;17.90;96.70;;;;;;4917465;29;20028;-84
2021/07/11 05:04:10;;;;;;;4.40;2.17;;;17.90;96.90;;;;;;4918284;29;20032;-86
2021/07/11 05:06:49;;;;;;;5.88;2.40;;;18.10;96.90;;;;;;4918070;29;20039;-86
2021/07/11 05:09:15;;;;;;;4.07;2.20;;;18.00;96.70;;;;;;4916609;29;20477;-85
2021/07/11 05:11:52;;;;;;;4.68;2.10;;;18.10;96.70;;;;;;4918224;29;20035;-85
2021/07/11 05:14:21;;;;;;;6.90;2.58;;;18.10;96.70;;;;;;4917582;29;20028;-86
2021/07/11 05:17:12;;;;;;;4.32;2.30;;;18.10;96.60;;;;;;4918507;29;20164;-85
2021/07/11 05:19:42;;;;;;;4.28;2.20;;;18.00;96.60;;;;;;4919082;29;20038;-85
2021/07/11 05:22:08;;;;;;;4.68;2.28;;;18.10;96.80;;;;;;4917009;29;20028;-85
2021/07/11 05:25:30;;;;;;;;;;;;;;;;;;;;;
2021/07/11 05:28:39;;;;;;;5.07;2.53;;;18.10;96.70;;;;;;4917861;29;20047;-87
2021/07/11 05:31:06;;;;;;;3.97;2.40;;;18.10;96.70;;;;;;4916428;29;20024;-84
2021/07/11 05:33:33;;;;;;;3.83;2.08;;;18.20;96.80;;;;;;4917668;29;20024;-84
2021/07/11 05:36:02;;;;;;;5.35;2.35;;;18.20;96.80;;;;;;4913048;29;20028;-85
2021/07/11 05:38:33;;;;;;;4.53;2.30;;;18.30;96.90;;;;;;4917226;29;20091;-84
2021/07/11 05:40:59;;;;;;;4.80;2.45;;;18.40;97.10;;;;;;4932627;29;20046;-84
2021/07/11 05:43:25;;;;;;;3.63;2.10;;;18.50;96.90;;;;;;4917901;29;20028;-84
2021/07/11 05:45:55;;;;;;;10.73;4.50;;;18.60;97.20;;;;;;4917354;29;20028;-84
2021/07/11 05:48:23;;;;;;;7.47;3.60;;;18.70;97.30;;;;;;4918011;29;20036;-84
2021/07/11 05:51:04;;;;;;;4.20;2.08;;;18.90;97.30;;;;;;4922275;29;20047;-84
2021/07/11 05:53:32;;;;;;;3.15;2.00;;;19.00;97.20;;;;;;4956090;29;20037;-84
2021/07/11 05:55:57;;;;;;;5.45;2.08;;;19.20;97.30;;;;;;4938398;29;20062;-84
2021/07/11 05:58:23;;;;;;;2.28;1.77;;;19.30;97.20;;;;;;4955091;29;20055;-84
2021/07/11 06:01:16;;;;;;;8.82;4.78;;;19.40;97.20;;;;;;4939360;29;20023;-86
2021/07/11 06:03:47;;;;;;;4.55;2.20;;;19.50;96.90;;;;;;4956029;29;20027;-85
2021/07/11 06:06:23;;;;;;;3.40;2.00;;;19.50;96.80;;;;;;4955747;29;20074;-85
2021/07/11 06:09:03;;;;;;;6.45;2.10;;;19.60;96.80;;;;;;4938384;29;20134;-85
2021/07/11 06:11:32;;;;;;;4.60;1.88;;;19.60;96.70;;;;;;4953996;29;20034;-85
2021/07/11 06:14:00;;;;;;;3.45;1.90;;;19.70;96.90;;;;;;4937900;29;20546;-85
2021/07/11 06:16:39;;;;;;;3.58;1.80;;;19.70;96.60;;;;;;4938530;29;20495;-85
2021/07/11 06:19:25;;;;;;;4.22;2.20;;;19.70;96.40;;;;;;4938096;29;20039;-86
2021/07/11 06:22:16;;;;;;;3.33;2.00;;;19.70;96.40;;;;;;4938527;29;20032;-85
2021/07/11 06:24:44;;;;;;;2.67;1.80;;;19.60;96.20;;;;;;4925757;29;20468;-85
2021/07/11 06:27:19;;;;;;;3.80;1.77;;;19.60;96.30;;;;;;4941372;29;20495;-85
2021/07/11 06:29:45;;;;;;;4.18;1.75;;;19.60;96.20;;;;;;4959324;29;20027;-83
2021/07/11 06:32:19;;;;;;;3.47;1.88;;;19.50;96.30;;;;;;4942058;29;20098;-85
2021/07/11 06:34:44;;;;;;;3.80;2.00;;;19.40;96.20;;;;;;4954533;29;20038;-83
2021/07/11 06:37:10;;;;;;;3.33;2.00;;;19.40;96.50;;;;;;4941808;29;20428;-84
2021/07/11 06:39:45;;;;;;;3.88;2.00;;;19.40;96.50;;;;;;4959261;29;20038;-84
2021/07/11 06:42:11;;;;;;;3.88;2.10;;;19.40;96.40;;;;;;4940766;29;20126;-83
2021/07/11 06:44:44;;;;;;;4.15;2.10;;;19.40;96.40;;;;;;4941732;29;20054;-85
2021/07/11 06:48:13;;;;;;;3.28;2.00;;;19.30;96.70;;;;;;4956784;29;20070;-87
2021/07/11 06:51:37;;;;;;;;;;;;;;;;;;;;;
2021/07/11 06:54:48;;;;;;;;;;;;;;;;;;;;;
2021/07/11 06:57:14;;;;;;;8.40;4.13;;;19.60;96.80;;;;;;4923580;29;20043;-82
2021/07/11 06:59:40;;;;;;;4.22;2.20;;;19.60;96.60;;;;;;4939752;29;20705;-84
2021/07/11 07:02:06;;;;;;;4.05;2.28;;;19.70;96.70;;;;;;4939438;29;20052;-83
2021/07/11 07:04:32;;;;;;;3.47;2.05;;;19.70;96.50;;;;;;4938458;29;20540;-82
2021/07/11 07:06:57;;;;;;;3.67;2.05;;;19.70;96.20;;;;;;4937987;29;20039;-83
2021/07/11 07:09:23;;;;;;;3.50;2.10;;;19.60;96.10;;;;;;4941016;29;20081;-80
2021/07/11 07:11:52;;;;;;;2.80;1.90;;;19.50;96.20;;;;;;4940439;29;20058;-87
2021/07/11 07:14:18;;;;;;;4.68;2.25;;;19.50;96.30;;;;;;4942474;29;20114;-84
2021/07/11 07:16:55;;;;;;;4.93;2.17;;;19.60;96.30;;;;;;4940977;29;20119;-84
2021/07/11 07:19:21;;;;;;;3.83;2.22;;;19.50;96.40;;;;;;4940931;29;20046;-85
2021/07/11 07:21:50;;;;;;;4.20;2.30;;;19.50;96.30;;;;;;4941163;29;20464;-85
2021/07/11 07:24:17;;;;;;;4.22;2.30;;;19.50;96.30;;;;;;4958392;29;20023;-83
2021/07/11 07:26:46;;;;;;;3.38;2.10;;;19.40;96.50;;;;;;4958664;29;20031;-90
2021/07/11 07:37:00;;;;;;;;;;;;;;;;;;;;;
2021/07/11 07:58:17;;;;;;;5.80;2.50;;;20.20;96.60;;;;;;4693869;30;20080;-90
2021/07/11 08:04:08;;;;;;;5.03;2.55;;;20.20;96.20;;;;;;4726424;30;20112;-88
2021/07/11 08:06:38;;;;;;;5.55;2.67;;;20.20;96.20;;;;;;4767512;29;20026;-86
2021/07/11 08:09:03;;;;;;;7.47;3.92;;;20.30;96.20;;;;;;4897272;29;20131;-86
2021/07/11 08:12:00;;;;;;;5.20;2.60;;;20.20;96.00;;;;;;4938096;29;20047;-91
2021/07/11 08:14:26;;;;;;;7.25;2.85;;;20.10;96.20;;;;;;4924190;29;20039;-87
2021/07/11 08:16:51;;;;;;;4.68;2.30;;;20.20;96.30;;;;;;4921670;29;20028;-86
2021/07/11 08:19:23;;;;;;;5.15;2.53;;;20.20;96.20;;;;;;4938075;29;20028;-87
2021/07/11 08:21:54;;;;;;;5.25;2.33;;;20.20;96.20;;;;;;4920943;29;20119;-85
2021/07/11 08:24:29;;;;;;;5.07;2.40;;;20.20;96.30;;;;;;4938762;29;20027;-91
2021/07/11 08:27:47;;;;;;;4.30;2.20;;;20.20;96.30;;;;;;4937916;29;20035;-88
2021/07/11 08:30:29;;;;;;;5.03;2.50;;;20.30;96.40;;;;;;4922338;29;20500;-90
2021/07/11 08:37:18;;;;;;;5.38;2.40;;;20.40;96.50;;;;;;4941807;29;20126;-88
2021/07/11 08:43:31;;;;;;;4.57;2.50;;;20.40;96.40;;;;;;4939155;29;20047;-86
2021/07/11 08:47:01;;;;;;;;;;;;;;;;;;;;;
2021/07/11 10:11:46;;;;;;;;;;;;;;;;;;;;;
2021/07/11 13:59:12;;;;;;;;;;;;;;;;;;;;;
2021/07/11 14:05:23;;;;;;;3.45;1.85;;;37.20;89.40;;;;;;4978648;28;20066;-87
2021/07/11 14:08:07;;;;;;;3.00;2.00;;;36.60;88.50;;;;;;4961119;28;20475;-86
2021/07/11 14:10:53;;;;;;;2.15;1.73;;;36.20;90.00;;;;;;4977381;28;20023;-88
2021/07/11 14:21:19;;;;;;;;;;;;;;;;;;;;;
2021/07/11 14:24:55;;;;;;;3.17;2.03;;;33.60;91.80;;;;;;4844600;29;20117;-88
2021/07/11 14:35:17;;;;;;;;;;;;;;;;;;;;;
2021/07/11 14:39:01;;;;;;;;;;;;;;;;;;;;;
2021/07/11 14:42:56;;;;;;;;;;;;;;;;;;;;;
2021/07/11 17:56:19;;;;;;;5.53;2.90;;;25.40;94.90;;;;;;5995804;23;20401;-89
2021/07/11 18:27:48;;;;;;;;;;;;;;;;;;;;;
2021/07/11 18:30:22;;;;;;;6.88;3.25;;;22.20;94.20;;;;;;4721555;30;20053;-91
2021/07/11 18:32:55;;;;;;;9.50;3.30;;;22.10;94.20;;;;;;4744920;30;20035;-91
2021/07/11 18:35:28;;;;;;;9.57;3.25;;;22.00;94.50;;;;;;4833714;29;20121;-89
2021/07/11 18:38:31;;;;;;;7.35;3.35;;;21.90;93.90;;;;;;4833551;29;20137;-88
2021/07/11 18:56:14;;;;;;;;;;;;;;;;;;;;;
2021/07/11 19:03:35;;;;;;;;;;;;;;;;;;;;;
2021/07/11 19:06:14;;;;;;;;;;;;;;;;;;;;;
2021/07/11 19:13:17;;;;;;;;;;;;;;;;;;;;;
2021/07/11 19:16:15;;;;;;;;;;;;;;;;;;;;;
2021/07/11 19:18:48;;;;;;;8.70;4.47;;;20.00;94.90;;;;;;4871437;29;19907;-89
2021/07/11 19:21:20;;;;;;;10.23;4.25;;;19.80;94.50;;;;;;4884059;29;20043;-89
2021/07/11 19:23:46;;;;;;;8.40;4.20;;;19.70;94.30;;;;;;4883888;29;20041;-88
2021/07/11 19:26:14;;;;;;;8.70;4.38;;;19.50;94.40;;;;;;4899810;29;20029;-89
2021/07/11 19:28:40;;;;;;;11.40;5.35;;;19.30;94.60;;;;;;4914387;29;20043;-90
2021/07/11 19:48:42;;;;;;;10.00;5.80;;;18.80;94.80;;;;;;4881030;29;20609;-89
2021/07/11 19:55:22;;;;;;;12.45;6.18;;;18.70;94.90;;;;;;4806732;29;20080;-88
2021/07/11 19:57:57;;;;;;;15.30;5.78;;;18.50;94.90;;;;;;4797800;29;20066;-88
2021/07/11 20:00:35;;;;;;;10.38;6.00;;;18.50;94.90;;;;;;4848849;29;20046;-87
2021/07/11 20:06:14;;;;;;;12.95;6.43;;;18.30;95.00;;;;;;4866079;29;20041;-86
2021/07/11 20:08:47;;;;;;;10.93;5.95;;;18.00;95.00;;;;;;4861576;29;20512;-87
2021/07/11 20:11:13;;;;;;;11.25;6.28;;;18.10;95.10;;;;;;4857316;29;20040;-86
2021/07/11 20:13:39;;;;;;;12.50;7.20;;;18.10;95.10;;;;;;4916874;29;20088;-83
2021/07/11 20:16:06;;;;;;;12.30;6.30;;;18.00;95.10;;;;;;4916945;29;20095;-85
2021/07/11 20:18:31;;;;;;;15.90;7.03;;;17.90;95.10;;;;;;4901644;29;20064;-84
2021/07/11 20:20:58;;;;;;;14.68;6.85;;;17.90;95.20;;;;;;4901619;29;20068;-85
2021/07/11 20:23:24;;;;;;;11.75;6.97;;;17.80;95.10;;;;;;4917115;29;20036;-84
2021/07/11 20:25:50;;;;;;;16.67;7.72;;;17.70;95.10;;;;;;4901131;29;20024;-85
2021/07/11 20:28:16;;;;;;;16.20;7.10;;;17.80;95.20;;;;;;4901195;29;20048;-85
2021/07/11 20:30:42;;;;;;;12.57;7.07;;;17.40;95.10;;;;;;4916794;29;20084;-83
2021/07/11 20:33:07;;;;;;;13.73;7.50;;;17.50;95.20;;;;;;4916479;29;20096;-85
2021/07/11 20:35:34;;;;;;;17.35;6.75;;;17.50;95.20;;;;;;4889823;29;20036;-84
2021/07/11 20:37:59;;;;;;;20.50;6.88;;;17.50;95.30;;;;;;4897689;29;20040;-84
2021/07/11 20:40:27;;;;;;;13.85;6.80;;;17.40;95.20;;;;;;4903849;29;20130;-85
2021/07/11 20:42:53;;;;;;;16.27;6.03;;;17.40;95.20;;;;;;4917670;29;20035;-85
2021/07/11 20:45:19;;;;;;;20.42;7.70;;;17.30;95.30;;;;;;4918723;29;20028;-85
2021/07/11 20:47:45;;;;;;;19.58;6.40;;;17.30;95.30;;;;;;4928593;29;20392;-84
2021/07/11 20:50:13;;;;;;;15.07;6.03;;;17.30;95.30;;;;;;4952205;29;20074;-84
2021/07/11 20:52:41;;;;;;;10.43;5.85;;;17.20;95.30;;;;;;4937331;29;20059;-84
2021/07/11 20:55:09;;;;;;;10.70;6.03;;;17.10;95.20;;;;;;4937228;29;20027;-84
2021/07/11 20:58:09;;;;;;;13.40;6.53;;;17.10;95.20;;;;;;4939191;29;20500;-85
2021/07/11 21:00:58;;;;;;;14.90;7.07;;;17.00;95.20;;;;;;4956394;29;20043;-86
2021/07/11 21:03:26;;;;;;;18.10;6.65;;;17.00;95.30;;;;;;4956418;29;20023;-87
2021/07/11 21:06:06;;;;;;;13.10;6.10;;;16.90;95.40;;;;;;4939543;29;20444;-86
2021/07/11 21:08:32;;;;;;;15.63;6.53;;;16.70;95.30;;;;;;4939203;29;20077;-87
2021/07/11 21:11:02;;;;;;;13.95;6.30;;;16.90;95.50;;;;;;4938871;29;20050;-87
2021/07/11 21:13:32;;;;;;;11.02;5.35;;;16.80;95.40;;;;;;4938887;29;20027;-86
2021/07/11 21:16:07;;;;;;;13.48;5.93;;;16.70;95.30;;;;;;4939127;29;20027;-86
2021/07/11 21:18:39;;;;;;;11.82;5.97;;;16.70;95.30;;;;;;4954703;29;20042;-86
2021/07/11 21:21:10;;;;;;;10.98;6.20;;;16.60;95.40;;;;;;4955910;29;20051;-86
2021/07/11 21:23:36;;;;;;;15.68;5.88;;;16.60;95.40;;;;;;4955924;29;20028;-85
2021/07/11 21:26:02;;;;;;;15.13;6.07;;;16.50;95.50;;;;;;4944144;29;20020;-85
2021/07/11 21:28:28;;;;;;;13.15;6.55;;;16.50;95.40;;;;;;4955697;29;20492;-84
2021/07/11 21:30:55;;;;;;;14.68;6.82;;;16.40;95.40;;;;;;4955512;29;20038;-84
2021/07/11 21:33:22;;;;;;;15.40;7.47;;;16.40;95.50;;;;;;4970817;28;20436;-86
2021/07/11 21:36:12;;;;;;;11.82;7.00;;;16.40;95.60;;;;;;4946038;29;20043;-86
2021/07/11 21:39:32;;;;;;;13.10;6.82;;;16.40;95.60;;;;;;4936164;29;20045;-88
2021/07/11 21:45:45;;;;;;;12.70;6.55;;;16.30;95.60;;;;;;4928464;29;20036;-86
2021/07/11 21:48:11;;;;;;;13.02;6.75;;;16.30;95.60;;;;;;4935178;29;20036;-86
2021/07/11 21:50:39;;;;;;;11.65;6.38;;;16.20;95.60;;;;;;4936235;29;20039;-86
2021/07/11 21:53:05;;;;;;;12.75;6.60;;;16.10;95.50;;;;;;4918881;29;20044;-86
2021/07/11 21:55:37;;;;;;;13.43;6.43;;;16.20;95.70;;;;;;4918588;29;20485;-86
2021/07/11 21:58:12;;;;;;;13.93;6.22;;;16.20;95.80;;;;;;4918802;29;20130;-85
2021/07/11 22:00:46;;;;;;;15.32;6.45;;;16.20;95.80;;;;;;4919389;29;20028;-85
2021/07/11 22:03:37;;;;;;;14.23;6.13;;;16.20;95.80;;;;;;4918665;29;20039;-85
2021/07/11 22:06:03;;;;;;;13.32;5.95;;;16.20;95.80;;;;;;4919434;29;20038;-84
2021/07/11 22:08:28;;;;;;;14.10;7.10;;;16.20;95.90;;;;;;4936065;29;20028;-87
2021/07/11 22:11:47;;;;;;;;;;;;;;;;;;;;;
2021/07/11 22:14:13;;;;;;;17.38;8.15;;;16.20;95.90;;;;;;4931143;29;20531;-84
2021/07/11 22:16:39;;;;;;;17.42;7.72;;;16.20;95.90;;;;;;4936483;29;20106;-84
2021/07/11 22:19:07;;;;;;;14.50;7.18;;;16.20;95.90;;;;;;4936019;29;20373;-84
2021/07/11 22:21:33;;;;;;;15.00;7.40;;;16.20;95.90;;;;;;4936025;29;20043;-84
2021/07/11 22:23:59;;;;;;;15.18;6.97;;;16.20;95.90;;;;;;4935780;29;20028;-84
2021/07/11 22:26:25;;;;;;;14.10;7.50;;;16.20;96.10;;;;;;4935988;29;20031;-84
2021/07/11 22:28:50;;;;;;;13.52;6.45;;;16.20;95.90;;;;;;4936088;29;20043;-85
2021/07/11 22:31:16;;;;;;;12.80;6.82;;;16.20;95.90;;;;;;4936121;29;20032;-85
2021/07/11 22:33:42;;;;;;;14.70;7.13;;;16.10;95.90;;;;;;4918749;29;20035;-85
2021/07/11 22:36:07;;;;;;;14.57;6.65;;;16.10;95.90;;;;;;4938968;29;20110;-85
2021/07/11 22:38:34;;;;;;;16.35;6.95;;;16.20;96.00;;;;;;4935898;29;20031;-85
2021/07/11 22:41:00;;;;;;;15.50;8.05;;;16.10;96.00;;;;;;4918804;29;20480;-85
2021/07/11 22:43:30;;;;;;;15.13;7.47;;;16.10;95.90;;;;;;4935746;29;20040;-85
2021/07/11 22:45:55;;;;;;;18.52;8.23;;;16.10;95.90;;;;;;4935553;29;20055;-84
2021/07/11 22:48:21;;;;;;;31.58;10.40;;;16.10;96.00;;;;;;4918765;29;20517;-84
2021/07/11 22:50:47;;;;;;;27.67;10.88;;;16.10;96.10;;;;;;4918882;29;20024;-84
2021/07/11 22:53:13;;;;;;;44.75;13.05;;;16.20;96.20;;;;;;4934496;29;20039;-85
2021/07/11 22:55:39;;;;;;;59.22;13.68;;;16.20;96.20;;;;;;4918962;29;20039;-85
2021/07/11 22:58:05;;;;;;;64.95;14.35;;;16.20;96.20;;;;;;4918277;29;20534;-86
2021/07/11 23:00:37;;;;;;;47.58;13.75;;;16.30;96.30;;;;;;4918426;29;20127;-86
2021/07/11 23:03:06;;;;;;;51.38;13.73;;;16.00;96.20;;;;;;4918638;29;20499;-86
2021/07/11 23:05:35;;;;;;;46.55;12.43;;;16.30;96.30;;;;;;4919625;29;20057;-86
2021/07/11 23:08:01;;;;;;;45.40;13.10;;;16.40;96.30;;;;;;4939114;29;20040;-86
2021/07/11 23:10:28;;;;;;;61.95;15.50;;;16.30;96.20;;;;;;4938776;29;20031;-85
2021/07/11 23:12:54;;;;;;;66.15;13.50;;;16.30;96.20;;;;;;4938828;29;20032;-85
2021/07/11 23:15:23;;;;;;;43.72;11.85;;;16.40;96.20;;;;;;4938922;29;20034;-85
2021/07/11 23:17:51;;;;;;;36.72;11.32;;;16.30;96.10;;;;;;4921756;29;20030;-86
2021/07/11 23:20:26;;;;;;;33.45;9.77;;;16.20;96.10;;;;;;4921850;29;20031;-86
2021/07/11 23:25:50;;;;;;;57.35;12.25;;;16.30;96.20;;;;;;4938931;29;20087;-86
2021/07/11 23:28:16;;;;;;;49.95;10.30;;;16.30;96.00;;;;;;4921530;29;20122;-86
2021/07/11 23:30:53;;;;;;;47.78;10.45;;;16.30;96.10;;;;;;4921814;29;20028;-87
2021/07/11 23:33:48;;;;;;;31.90;9.35;;;16.30;96.10;;;;;;4938522;29;20023;-86
2021/07/11 23:36:17;;;;;;;27.90;8.45;;;16.30;96.10;;;;;;4941602;29;20028;-86
2021/07/11 23:38:45;;;;;;;45.60;8.60;;;16.30;96.10;;;;;;4938580;29;20032;-86
2021/07/11 23:41:13;;;;;;;38.38;8.68;;;16.20;96.10;;;;;;4921535;29;20043;-85
2021/07/11 23:43:50;;;;;;;23.73;7.10;;;16.20;96.10;;;;;;4938374;29;20066;-85
2021/07/11 23:46:16;;;;;;;20.20;6.93;;;16.20;96.10;;;;;;4938627;29;20031;-85
2021/07/11 23:48:45;;;;;;;20.27;7.07;;;16.20;96.10;;;;;;4921102;29;20088;-86
2021/07/11 23:51:10;;;;;;;23.75;7.15;;;16.00;96.00;;;;;;4921537;29;20107;-84
2021/07/11 23:53:36;;;;;;;15.55;6.38;;;16.10;96.30;;;;;;4921371;29;20449;-84
2021/07/11 23:56:02;;;;;;;19.23;6.35;;;16.00;95.90;;;;;;4938412;29;20507;-84
2021/07/11 23:58:28;;;;;;;17.55;6.35;;;15.90;95.90;;;;;;4937888;29;20051;-84
